sensor_id;sensor_type;location;lat;lon;timestamp;P1;durP1;ratioP1;P2;durP2;ratioP2
48203;SDS011;33994;50.998;5.864;2022-10-19T00:01:52;16.77;;;8.05;;
48203;SDS011;33994;50.998;5.864;2022-10-19T00:04:38;21.02;;;8.25;;
48203;SDS011;33994;50.998;5.864;2022-10-19T00:07:23;18.17;;;8.30;;
48203;SDS011;33994;50.998;5.864;2022-10-19T00:10:09;15.15;;;8.10;;
48203;SDS011;33994;50.998;5.864;2022-10-19T00:12:54;16.80;;;8.30;;
48203;SDS011;33994;50.998;5.864;2022-10-19T00:15:40;17.05;;;7.60;;
48203;SDS011;33994;50.998;5.864;2022-10-19T00:18:26;14.75;;;7.05;;
48203;SDS011;33994;50.998;5.864;2022-10-19T00:21:13;17.50;;;7.63;;
48203;SDS011;33994;50.998;5.864;2022-10-19T00:24:00;18.33;;;7.55;;
48203;SDS011;33994;50.998;5.864;2022-10-19T00:26:46;15.93;;;6.93;;
48203;SDS011;33994;50.998;5.864;2022-10-19T00:29:31;15.95;;;6.93;;
48203;SDS011;33994;50.998;5.864;2022-10-19T00:32:17;14.20;;;6.60;;
48203;SDS011;33994;50.998;5.864;2022-10-19T00:35:02;13.80;;;6.63;;
48203;SDS011;33994;50.998;5.864;2022-10-19T00:37:48;17.92;;;7.25;;
48203;SDS011;33994;50.998;5.864;2022-10-19T00:40:37;12.00;;;6.78;;
48203;SDS011;33994;50.998;5.864;2022-10-19T00:43:23;18.48;;;8.05;;
48203;SDS011;33994;50.998;5.864;2022-10-19T00:46:14;18.42;;;7.43;;
48203;SDS011;33994;50.998;5.864;2022-10-19T00:49:00;11.77;;;6.80;;
48203;SDS011;33994;50.998;5.864;2022-10-19T00:51:53;13.85;;;7.00;;
48203;SDS011;33994;50.998;5.864;2022-10-19T00:54:41;19.75;;;8.75;;
48203;SDS011;33994;50.998;5.864;2022-10-19T00:57:29;23.45;;;9.18;;
48203;SDS011;33994;50.998;5.864;2022-10-19T01:00:15;20.73;;;7.22;;
48203;SDS011;33994;50.998;5.864;2022-10-19T01:03:01;15.05;;;7.40;;
48203;SDS011;33994;50.998;5.864;2022-10-19T01:05:48;15.70;;;6.85;;
48203;SDS011;33994;50.998;5.864;2022-10-19T01:08:34;19.88;;;7.30;;
48203;SDS011;33994;50.998;5.864;2022-10-19T01:11:35;17.83;;;6.60;;
48203;SDS011;33994;50.998;5.864;2022-10-19T01:27:04;15.50;;;6.45;;
48203;SDS011;33994;50.998;5.864;2022-10-19T01:30:05;13.63;;;7.03;;
48203;SDS011;33994;50.998;5.864;2022-10-19T01:48:09;12.15;;;5.80;;
48203;SDS011;33994;50.998;5.864;2022-10-19T01:50:59;13.93;;;6.30;;
48203;SDS011;33994;50.998;5.864;2022-10-19T01:53:50;15.45;;;6.20;;
48203;SDS011;33994;50.998;5.864;2022-10-19T01:56:38;16.85;;;6.57;;
48203;SDS011;33994;50.998;5.864;2022-10-19T01:59:27;10.68;;;6.20;;
48203;SDS011;33994;50.998;5.864;2022-10-19T02:02:14;15.80;;;5.55;;
48203;SDS011;33994;50.998;5.864;2022-10-19T02:05:02;13.27;;;6.47;;
48203;SDS011;33994;50.998;5.864;2022-10-19T02:07:52;14.90;;;6.70;;
48203;SDS011;33994;50.998;5.864;2022-10-19T02:10:45;16.70;;;7.75;;
48203;SDS011;33994;50.998;5.864;2022-10-19T02:13:31;16.70;;;6.05;;
48203;SDS011;33994;50.998;5.864;2022-10-19T02:16:19;13.93;;;6.50;;
48203;SDS011;33994;50.998;5.864;2022-10-19T02:19:09;22.55;;;7.03;;
48203;SDS011;33994;50.998;5.864;2022-10-19T02:21:58;15.48;;;5.95;;
48203;SDS011;33994;50.998;5.864;2022-10-19T02:24:44;12.70;;;5.47;;
48203;SDS011;33994;50.998;5.864;2022-10-19T02:27:29;17.90;;;6.68;;
48203;SDS011;33994;50.998;5.864;2022-10-19T02:30:16;18.02;;;6.68;;
48203;SDS011;33994;50.998;5.864;2022-10-19T02:33:02;14.63;;;5.93;;
48203;SDS011;33994;50.998;5.864;2022-10-19T02:35:47;17.52;;;6.10;;
48203;SDS011;33994;50.998;5.864;2022-10-19T02:38:33;19.95;;;8.73;;
48203;SDS011;33994;50.998;5.864;2022-10-19T02:44:10;14.88;;;6.15;;
48203;SDS011;33994;50.998;5.864;2022-10-19T02:47:13;17.77;;;6.13;;
48203;SDS011;33994;50.998;5.864;2022-10-19T02:50:05;16.13;;;6.07;;
48203;SDS011;33994;50.998;5.864;2022-10-19T02:52:52;11.00;;;5.63;;
48203;SDS011;33994;50.998;5.864;2022-10-19T02:55:38;19.30;;;5.57;;
48203;SDS011;33994;50.998;5.864;2022-10-19T02:58:24;15.60;;;5.85;;
48203;SDS011;33994;50.998;5.864;2022-10-19T03:01:09;19.95;;;6.38;;
48203;SDS011;33994;50.998;5.864;2022-10-19T03:03:55;13.35;;;5.82;;
48203;SDS011;33994;50.998;5.864;2022-10-19T03:06:40;13.93;;;6.30;;
48203;SDS011;33994;50.998;5.864;2022-10-19T03:09:26;19.25;;;6.15;;
48203;SDS011;33994;50.998;5.864;2022-10-19T03:12:11;17.70;;;6.70;;
48203;SDS011;33994;50.998;5.864;2022-10-19T03:14:57;14.48;;;5.93;;
48203;SDS011;33994;50.998;5.864;2022-10-19T03:17:43;21.77;;;6.90;;
48203;SDS011;33994;50.998;5.864;2022-10-19T03:20:28;18.75;;;6.05;;
48203;SDS011;33994;50.998;5.864;2022-10-19T03:23:14;19.17;;;6.25;;
48203;SDS011;33994;50.998;5.864;2022-10-19T03:25:59;17.50;;;6.10;;
48203;SDS011;33994;50.998;5.864;2022-10-19T03:28:45;15.10;;;6.00;;
48203;SDS011;33994;50.998;5.864;2022-10-19T03:31:31;14.20;;;6.28;;
48203;SDS011;33994;50.998;5.864;2022-10-19T03:34:16;19.48;;;6.90;;
48203;SDS011;33994;50.998;5.864;2022-10-19T03:37:02;16.58;;;6.72;;
48203;SDS011;33994;50.998;5.864;2022-10-19T03:39:47;16.40;;;6.75;;
48203;SDS011;33994;50.998;5.864;2022-10-19T03:42:33;23.05;;;6.22;;
48203;SDS011;33994;50.998;5.864;2022-10-19T03:45:18;15.10;;;6.50;;
48203;SDS011;33994;50.998;5.864;2022-10-19T03:48:05;15.40;;;5.63;;
48203;SDS011;33994;50.998;5.864;2022-10-19T03:50:58;19.45;;;6.18;;
48203;SDS011;33994;50.998;5.864;2022-10-19T03:53:44;13.30;;;6.28;;
48203;SDS011;33994;50.998;5.864;2022-10-19T03:56:30;12.93;;;6.82;;
48203;SDS011;33994;50.998;5.864;2022-10-19T03:59:17;14.55;;;6.07;;
48203;SDS011;33994;50.998;5.864;2022-10-19T04:02:03;16.38;;;6.22;;
48203;SDS011;33994;50.998;5.864;2022-10-19T04:04:48;10.85;;;5.80;;
48203;SDS011;33994;50.998;5.864;2022-10-19T04:07:34;15.57;;;5.95;;
48203;SDS011;33994;50.998;5.864;2022-10-19T04:10:19;18.33;;;6.40;;
48203;SDS011;33994;50.998;5.864;2022-10-19T04:13:05;12.00;;;6.20;;
48203;SDS011;33994;50.998;5.864;2022-10-19T04:15:50;16.40;;;5.82;;
48203;SDS011;33994;50.998;5.864;2022-10-19T04:18:36;11.80;;;5.63;;
48203;SDS011;33994;50.998;5.864;2022-10-19T04:21:28;18.77;;;6.75;;
48203;SDS011;33994;50.998;5.864;2022-10-19T04:24:18;16.70;;;6.40;;
48203;SDS011;33994;50.998;5.864;2022-10-19T04:27:03;18.52;;;6.78;;
48203;SDS011;33994;50.998;5.864;2022-10-19T04:29:49;23.35;;;7.30;;
48203;SDS011;33994;50.998;5.864;2022-10-19T04:32:34;17.42;;;6.35;;
48203;SDS011;33994;50.998;5.864;2022-10-19T04:35:20;18.33;;;8.05;;
48203;SDS011;33994;50.998;5.864;2022-10-19T04:38:05;18.95;;;6.82;;
48203;SDS011;33994;50.998;5.864;2022-10-19T04:40:51;15.23;;;6.43;;
48203;SDS011;33994;50.998;5.864;2022-10-19T04:43:36;17.30;;;6.38;;
48203;SDS011;33994;50.998;5.864;2022-10-19T04:46:22;17.05;;;7.15;;
48203;SDS011;33994;50.998;5.864;2022-10-19T04:49:09;17.67;;;7.53;;
48203;SDS011;33994;50.998;5.864;2022-10-19T04:51:54;20.52;;;7.00;;
48203;SDS011;33994;50.998;5.864;2022-10-19T04:54:40;20.77;;;7.32;;
48203;SDS011;33994;50.998;5.864;2022-10-19T04:57:25;14.43;;;6.82;;
48203;SDS011;33994;50.998;5.864;2022-10-19T05:00:11;16.48;;;7.25;;
48203;SDS011;33994;50.998;5.864;2022-10-19T05:02:57;21.00;;;8.35;;
48203;SDS011;33994;50.998;5.864;2022-10-19T05:05:43;18.75;;;7.55;;
48203;SDS011;33994;50.998;5.864;2022-10-19T05:08:28;14.10;;;7.30;;
48203;SDS011;33994;50.998;5.864;2022-10-19T05:11:14;15.38;;;7.00;;
48203;SDS011;33994;50.998;5.864;2022-10-19T05:14:00;26.70;;;7.18;;
48203;SDS011;33994;50.998;5.864;2022-10-19T05:16:46;18.30;;;7.13;;
48203;SDS011;33994;50.998;5.864;2022-10-19T05:19:31;17.40;;;7.07;;
48203;SDS011;33994;50.998;5.864;2022-10-19T05:22:17;15.55;;;7.80;;
48203;SDS011;33994;50.998;5.864;2022-10-19T05:25:02;14.25;;;8.07;;
48203;SDS011;33994;50.998;5.864;2022-10-19T05:27:52;17.50;;;7.20;;
48203;SDS011;33994;50.998;5.864;2022-10-19T05:30:37;20.63;;;8.02;;
48203;SDS011;33994;50.998;5.864;2022-10-19T05:33:23;15.32;;;7.00;;
48203;SDS011;33994;50.998;5.864;2022-10-19T05:36:18;18.02;;;7.70;;
48203;SDS011;33994;50.998;5.864;2022-10-19T05:39:06;15.75;;;7.80;;
48203;SDS011;33994;50.998;5.864;2022-10-19T05:41:56;23.35;;;7.72;;
48203;SDS011;33994;50.998;5.864;2022-10-19T05:44:41;20.08;;;8.20;;
48203;SDS011;33994;50.998;5.864;2022-10-19T05:47:27;21.92;;;7.97;;
48203;SDS011;33994;50.998;5.864;2022-10-19T05:50:12;21.90;;;8.48;;
48203;SDS011;33994;50.998;5.864;2022-10-19T05:52:57;18.08;;;7.30;;
48203;SDS011;33994;50.998;5.864;2022-10-19T05:55:43;24.10;;;8.07;;
48203;SDS011;33994;50.998;5.864;2022-10-19T05:58:28;17.92;;;7.88;;
48203;SDS011;33994;50.998;5.864;2022-10-19T06:01:14;22.75;;;7.90;;
48203;SDS011;33994;50.998;5.864;2022-10-19T06:04:02;21.98;;;8.52;;
48203;SDS011;33994;50.998;5.864;2022-10-19T06:06:48;13.90;;;8.17;;
48203;SDS011;33994;50.998;5.864;2022-10-19T06:09:33;19.70;;;7.95;;
48203;SDS011;33994;50.998;5.864;2022-10-19T06:12:20;17.92;;;7.60;;
48203;SDS011;33994;50.998;5.864;2022-10-19T06:15:05;24.13;;;8.10;;
48203;SDS011;33994;50.998;5.864;2022-10-19T06:17:51;18.58;;;7.88;;
48203;SDS011;33994;50.998;5.864;2022-10-19T06:20:37;26.10;;;7.82;;
48203;SDS011;33994;50.998;5.864;2022-10-19T06:23:24;20.08;;;8.00;;
48203;SDS011;33994;50.998;5.864;2022-10-19T06:26:10;21.08;;;7.50;;
48203;SDS011;33994;50.998;5.864;2022-10-19T06:28:58;17.92;;;7.70;;
48203;SDS011;33994;50.998;5.864;2022-10-19T06:31:44;24.38;;;7.90;;
48203;SDS011;33994;50.998;5.864;2022-10-19T06:34:30;31.27;;;8.48;;
48203;SDS011;33994;50.998;5.864;2022-10-19T06:37:15;20.50;;;8.23;;
48203;SDS011;33994;50.998;5.864;2022-10-19T06:40:01;17.30;;;8.57;;
48203;SDS011;33994;50.998;5.864;2022-10-19T06:42:46;20.35;;;9.00;;
48203;SDS011;33994;50.998;5.864;2022-10-19T06:45:32;30.98;;;9.65;;
48203;SDS011;33994;50.998;5.864;2022-10-19T06:48:17;21.38;;;8.52;;
48203;SDS011;33994;50.998;5.864;2022-10-19T06:51:03;25.95;;;8.52;;
48203;SDS011;33994;50.998;5.864;2022-10-19T06:53:50;18.80;;;8.25;;
48203;SDS011;33994;50.998;5.864;2022-10-19T06:56:36;23.17;;;8.60;;
48203;SDS011;33994;50.998;5.864;2022-10-19T06:59:22;23.63;;;8.60;;
48203;SDS011;33994;50.998;5.864;2022-10-19T07:02:09;18.55;;;7.85;;
48203;SDS011;33994;50.998;5.864;2022-10-19T07:04:55;23.58;;;7.93;;
48203;SDS011;33994;50.998;5.864;2022-10-19T07:07:40;17.95;;;7.60;;
48203;SDS011;33994;50.998;5.864;2022-10-19T07:10:26;22.15;;;7.95;;
48203;SDS011;33994;50.998;5.864;2022-10-19T07:13:11;20.55;;;7.70;;
48203;SDS011;33994;50.998;5.864;2022-10-19T07:16:07;18.13;;;8.15;;
48203;SDS011;33994;50.998;5.864;2022-10-19T07:18:55;20.30;;;9.07;;
48203;SDS011;33994;50.998;5.864;2022-10-19T07:21:40;16.50;;;7.85;;
48203;SDS011;33994;50.998;5.864;2022-10-19T07:24:26;20.58;;;8.45;;
48203;SDS011;33994;50.998;5.864;2022-10-19T07:27:11;14.75;;;8.32;;
48203;SDS011;33994;50.998;5.864;2022-10-19T07:29:57;21.10;;;8.85;;
48203;SDS011;33994;50.998;5.864;2022-10-19T07:32:42;22.27;;;9.57;;
48203;SDS011;33994;50.998;5.864;2022-10-19T07:35:28;15.65;;;8.23;;
48203;SDS011;33994;50.998;5.864;2022-10-19T07:38:14;19.40;;;10.23;;
48203;SDS011;33994;50.998;5.864;2022-10-19T07:41:03;17.65;;;8.70;;
48203;SDS011;33994;50.998;5.864;2022-10-19T07:43:49;23.15;;;9.52;;
48203;SDS011;33994;50.998;5.864;2022-10-19T07:46:35;19.90;;;9.38;;
48203;SDS011;33994;50.998;5.864;2022-10-19T07:49:21;19.80;;;9.02;;
48203;SDS011;33994;50.998;5.864;2022-10-19T07:52:07;21.00;;;8.43;;
48203;SDS011;33994;50.998;5.864;2022-10-19T07:54:52;17.63;;;8.05;;
48203;SDS011;33994;50.998;5.864;2022-10-19T07:57:38;18.10;;;7.95;;
48203;SDS011;33994;50.998;5.864;2022-10-19T08:00:23;19.13;;;8.30;;
48203;SDS011;33994;50.998;5.864;2022-10-19T08:03:08;19.98;;;8.57;;
48203;SDS011;33994;50.998;5.864;2022-10-19T08:06:00;21.45;;;7.70;;
48203;SDS011;33994;50.998;5.864;2022-10-19T08:08:47;16.60;;;7.93;;
48203;SDS011;33994;50.998;5.864;2022-10-19T08:11:33;22.80;;;9.02;;
48203;SDS011;33994;50.998;5.864;2022-10-19T08:14:19;26.15;;;8.30;;
48203;SDS011;33994;50.998;5.864;2022-10-19T08:17:05;23.15;;;7.95;;
48203;SDS011;33994;50.998;5.864;2022-10-19T08:19:51;22.08;;;7.68;;
48203;SDS011;33994;50.998;5.864;2022-10-19T08:22:37;20.17;;;8.60;;
48203;SDS011;33994;50.998;5.864;2022-10-19T08:25:24;23.70;;;7.90;;
48203;SDS011;33994;50.998;5.864;2022-10-19T08:28:09;19.55;;;7.95;;
48203;SDS011;33994;50.998;5.864;2022-10-19T08:30:55;23.88;;;9.98;;
48203;SDS011;33994;50.998;5.864;2022-10-19T08:33:42;16.55;;;7.53;;
48203;SDS011;33994;50.998;5.864;2022-10-19T08:36:28;19.90;;;7.70;;
48203;SDS011;33994;50.998;5.864;2022-10-19T08:39:14;19.27;;;8.60;;
48203;SDS011;33994;50.998;5.864;2022-10-19T08:42:01;16.13;;;7.55;;
48203;SDS011;33994;50.998;5.864;2022-10-19T08:47:54;21.17;;;8.15;;
48203;SDS011;33994;50.998;5.864;2022-10-19T08:50:51;23.23;;;8.80;;
48203;SDS011;33994;50.998;5.864;2022-10-19T08:53:51;16.65;;;7.18;;
48203;SDS011;33994;50.998;5.864;2022-10-19T08:56:43;15.65;;;7.18;;
48203;SDS011;33994;50.998;5.864;2022-10-19T09:00:03;17.80;;;7.25;;
48203;SDS011;33994;50.998;5.864;2022-10-19T09:08:55;17.67;;;7.47;;
48203;SDS011;33994;50.998;5.864;2022-10-19T09:11:43;15.65;;;7.57;;
48203;SDS011;33994;50.998;5.864;2022-10-19T09:14:41;15.80;;;7.55;;
48203;SDS011;33994;50.998;5.864;2022-10-19T09:17:50;22.20;;;7.57;;
48203;SDS011;33994;50.998;5.864;2022-10-19T09:20:40;20.15;;;7.28;;
48203;SDS011;33994;50.998;5.864;2022-10-19T09:23:30;20.90;;;7.70;;
48203;SDS011;33994;50.998;5.864;2022-10-19T09:26:27;20.15;;;7.57;;
48203;SDS011;33994;50.998;5.864;2022-10-19T09:29:23;16.73;;;7.72;;
48203;SDS011;33994;50.998;5.864;2022-10-19T09:32:35;19.90;;;8.10;;
48203;SDS011;33994;50.998;5.864;2022-10-19T09:35:23;27.93;;;9.60;;
48203;SDS011;33994;50.998;5.864;2022-10-19T09:38:14;21.08;;;10.00;;
48203;SDS011;33994;50.998;5.864;2022-10-19T09:41:21;20.40;;;9.32;;
48203;SDS011;33994;50.998;5.864;2022-10-19T09:44:08;21.38;;;9.75;;
48203;SDS011;33994;50.998;5.864;2022-10-19T09:50:26;18.20;;;10.82;;
48203;SDS011;33994;50.998;5.864;2022-10-19T09:53:16;22.13;;;11.50;;
48203;SDS011;33994;50.998;5.864;2022-10-19T09:56:05;22.83;;;13.25;;
48203;SDS011;33994;50.998;5.864;2022-10-19T09:58:55;21.33;;;11.73;;
48203;SDS011;33994;50.998;5.864;2022-10-19T10:01:42;25.77;;;12.75;;
48203;SDS011;33994;50.998;5.864;2022-10-19T10:04:28;30.75;;;13.90;;
48203;SDS011;33994;50.998;5.864;2022-10-19T10:07:15;27.25;;;16.27;;
48203;SDS011;33994;50.998;5.864;2022-10-19T10:10:09;30.00;;;16.05;;
48203;SDS011;33994;50.998;5.864;2022-10-19T10:13:03;39.13;;;18.48;;
48203;SDS011;33994;50.998;5.864;2022-10-19T10:15:53;34.05;;;19.10;;
48203;SDS011;33994;50.998;5.864;2022-10-19T10:18:53;37.40;;;20.52;;
48203;SDS011;33994;50.998;5.864;2022-10-19T10:21:47;38.78;;;21.17;;
48203;SDS011;33994;50.998;5.864;2022-10-19T10:24:35;44.92;;;20.90;;
48203;SDS011;33994;50.998;5.864;2022-10-19T10:27:35;39.92;;;21.50;;
48203;SDS011;33994;50.998;5.864;2022-10-19T10:30:22;41.25;;;21.05;;
48203;SDS011;33994;50.998;5.864;2022-10-19T10:33:08;40.35;;;21.83;;
48203;SDS011;33994;50.998;5.864;2022-10-19T10:36:04;41.72;;;21.30;;
48203;SDS011;33994;50.998;5.864;2022-10-19T10:38:54;38.03;;;21.30;;
48203;SDS011;33994;50.998;5.864;2022-10-19T10:41:47;37.55;;;19.73;;
48203;SDS011;33994;50.998;5.864;2022-10-19T10:44:33;39.00;;;19.80;;
48203;SDS011;33994;50.998;5.864;2022-10-19T10:47:19;41.30;;;20.65;;
48203;SDS011;33994;50.998;5.864;2022-10-19T10:50:05;38.72;;;21.75;;
48203;SDS011;33994;50.998;5.864;2022-10-19T10:52:58;38.80;;;21.70;;
48203;SDS011;33994;50.998;5.864;2022-10-19T10:55:53;39.95;;;21.60;;
48203;SDS011;33994;50.998;5.864;2022-10-19T10:58:41;36.53;;;20.50;;
48203;SDS011;33994;50.998;5.864;2022-10-19T11:01:32;41.35;;;22.20;;
48203;SDS011;33994;50.998;5.864;2022-10-19T11:04:24;40.67;;;20.75;;
48203;SDS011;33994;50.998;5.864;2022-10-19T11:07:20;40.13;;;21.42;;
48203;SDS011;33994;50.998;5.864;2022-10-19T11:10:27;43.22;;;21.45;;
48203;SDS011;33994;50.998;5.864;2022-10-19T11:13:22;39.63;;;20.85;;
48203;SDS011;33994;50.998;5.864;2022-10-19T11:16:15;42.28;;;21.05;;
48203;SDS011;33994;50.998;5.864;2022-10-19T11:19:25;36.20;;;19.90;;
48203;SDS011;33994;50.998;5.864;2022-10-19T11:34:18;35.08;;;18.75;;
48203;SDS011;33994;50.998;5.864;2022-10-19T11:40:36;36.60;;;19.90;;
48203;SDS011;33994;50.998;5.864;2022-10-19T11:49:50;43.78;;;20.77;;
48203;SDS011;33994;50.998;5.864;2022-10-19T12:01:36;37.72;;;19.02;;
48203;SDS011;33994;50.998;5.864;2022-10-19T12:04:45;45.22;;;19.63;;
48203;SDS011;33994;50.998;5.864;2022-10-19T12:07:43;47.70;;;21.77;;
48203;SDS011;33994;50.998;5.864;2022-10-19T12:14:02;46.65;;;21.48;;
48203;SDS011;33994;50.998;5.864;2022-10-19T12:16:50;47.58;;;21.00;;
48203;SDS011;33994;50.998;5.864;2022-10-19T12:19:45;43.55;;;20.95;;
48203;SDS011;33994;50.998;5.864;2022-10-19T12:22:33;54.10;;;24.48;;
48203;SDS011;33994;50.998;5.864;2022-10-19T12:25:21;48.95;;;22.33;;
48203;SDS011;33994;50.998;5.864;2022-10-19T12:28:08;47.80;;;23.05;;
48203;SDS011;33994;50.998;5.864;2022-10-19T12:31:03;48.25;;;22.35;;
48203;SDS011;33994;50.998;5.864;2022-10-19T12:46:45;47.75;;;21.38;;
48203;SDS011;33994;50.998;5.864;2022-10-19T12:55:35;41.28;;;18.48;;
48203;SDS011;33994;50.998;5.864;2022-10-19T12:58:20;52.83;;;21.83;;
48203;SDS011;33994;50.998;5.864;2022-10-19T13:01:08;43.72;;;21.08;;
48203;SDS011;33994;50.998;5.864;2022-10-19T13:04:12;42.97;;;20.75;;
48203;SDS011;33994;50.998;5.864;2022-10-19T13:09:50;49.33;;;21.83;;
48203;SDS011;33994;50.998;5.864;2022-10-19T13:12:46;43.42;;;20.00;;
48203;SDS011;33994;50.998;5.864;2022-10-19T13:19:00;46.17;;;20.98;;
48203;SDS011;33994;50.998;5.864;2022-10-19T13:22:20;43.05;;;21.83;;
48203;SDS011;33994;50.998;5.864;2022-10-19T13:33:45;35.90;;;18.95;;
48203;SDS011;33994;50.998;5.864;2022-10-19T13:36:32;40.53;;;18.92;;
48203;SDS011;33994;50.998;5.864;2022-10-19T13:39:21;37.75;;;19.13;;
48203;SDS011;33994;50.998;5.864;2022-10-19T13:42:24;35.38;;;17.45;;
48203;SDS011;33994;50.998;5.864;2022-10-19T13:45:21;34.10;;;18.15;;
48203;SDS011;33994;50.998;5.864;2022-10-19T13:48:17;36.58;;;18.45;;
48203;SDS011;33994;50.998;5.864;2022-10-19T13:57:30;28.90;;;16.40;;
48203;SDS011;33994;50.998;5.864;2022-10-19T14:00:35;31.63;;;16.50;;
48203;SDS011;33994;50.998;5.864;2022-10-19T14:10:06;33.58;;;14.50;;
48203;SDS011;33994;50.998;5.864;2022-10-19T14:12:57;30.77;;;14.35;;
48203;SDS011;33994;50.998;5.864;2022-10-19T14:15:53;33.72;;;14.70;;
48203;SDS011;33994;50.998;5.864;2022-10-19T14:18:40;24.27;;;13.15;;
48203;SDS011;33994;50.998;5.864;2022-10-19T14:21:33;23.85;;;13.07;;
48203;SDS011;33994;50.998;5.864;2022-10-19T14:24:20;23.42;;;12.52;;
48203;SDS011;33994;50.998;5.864;2022-10-19T14:27:21;27.88;;;11.95;;
48203;SDS011;33994;50.998;5.864;2022-10-19T14:33:14;27.02;;;12.05;;
48203;SDS011;33994;50.998;5.864;2022-10-19T14:36:00;24.92;;;11.18;;
48203;SDS011;33994;50.998;5.864;2022-10-19T14:38:52;24.85;;;10.80;;
48203;SDS011;33994;50.998;5.864;2022-10-19T14:41:39;21.05;;;9.68;;
48203;SDS011;33994;50.998;5.864;2022-10-19T14:44:33;19.35;;;9.88;;
48203;SDS011;33994;50.998;5.864;2022-10-19T14:47:22;19.10;;;10.57;;
48203;SDS011;33994;50.998;5.864;2022-10-19T14:50:10;20.17;;;10.60;;
48203;SDS011;33994;50.998;5.864;2022-10-19T14:52:57;24.65;;;10.43;;
48203;SDS011;33994;50.998;5.864;2022-10-19T14:55:47;21.10;;;9.90;;
48203;SDS011;33994;50.998;5.864;2022-10-19T14:58:43;19.85;;;9.80;;
48203;SDS011;33994;50.998;5.864;2022-10-19T15:01:36;16.52;;;9.23;;
48203;SDS011;33994;50.998;5.864;2022-10-19T15:04:23;16.73;;;9.68;;
48203;SDS011;33994;50.998;5.864;2022-10-19T15:07:16;19.40;;;9.57;;
48203;SDS011;33994;50.998;5.864;2022-10-19T15:10:05;18.60;;;9.57;;
48203;SDS011;33994;50.998;5.864;2022-10-19T15:13:00;21.00;;;8.90;;
48203;SDS011;33994;50.998;5.864;2022-10-19T15:15:50;20.70;;;9.50;;
48203;SDS011;33994;50.998;5.864;2022-10-19T15:18:37;18.75;;;9.57;;
48203;SDS011;33994;50.998;5.864;2022-10-19T15:21:25;17.85;;;8.57;;
48203;SDS011;33994;50.998;5.864;2022-10-19T15:24:26;20.20;;;9.95;;
48203;SDS011;33994;50.998;5.864;2022-10-19T15:27:19;21.55;;;9.20;;
48203;SDS011;33994;50.998;5.864;2022-10-19T15:35:47;16.75;;;9.27;;
48203;SDS011;33994;50.998;5.864;2022-10-19T15:38:32;19.20;;;9.13;;
48203;SDS011;33994;50.998;5.864;2022-10-19T15:41:20;21.42;;;9.48;;
48203;SDS011;33994;50.998;5.864;2022-10-19T15:47:24;24.75;;;9.88;;
48203;SDS011;33994;50.998;5.864;2022-10-19T15:50:17;13.07;;;7.80;;
48203;SDS011;33994;50.998;5.864;2022-10-19T15:53:15;16.33;;;8.85;;
48203;SDS011;33994;50.998;5.864;2022-10-19T15:56:01;19.98;;;8.18;;
48203;SDS011;33994;50.998;5.864;2022-10-19T15:58:50;17.58;;;8.38;;
48203;SDS011;33994;50.998;5.864;2022-10-19T16:01:39;19.17;;;8.60;;
48203;SDS011;33994;50.998;5.864;2022-10-19T16:04:25;24.40;;;8.75;;
48203;SDS011;33994;50.998;5.864;2022-10-19T16:07:14;20.42;;;9.52;;
48203;SDS011;33994;50.998;5.864;2022-10-19T16:10:03;16.67;;;8.85;;
48203;SDS011;33994;50.998;5.864;2022-10-19T16:12:50;18.13;;;8.40;;
48203;SDS011;33994;50.998;5.864;2022-10-19T16:15:35;17.42;;;9.10;;
48203;SDS011;33994;50.998;5.864;2022-10-19T16:18:21;17.33;;;9.43;;
48203;SDS011;33994;50.998;5.864;2022-10-19T16:21:06;19.05;;;8.73;;
48203;SDS011;33994;50.998;5.864;2022-10-19T16:23:52;17.90;;;8.80;;
48203;SDS011;33994;50.998;5.864;2022-10-19T16:26:38;17.95;;;9.10;;
48203;SDS011;33994;50.998;5.864;2022-10-19T16:29:23;22.27;;;8.85;;
48203;SDS011;33994;50.998;5.864;2022-10-19T16:32:08;16.88;;;8.30;;
48203;SDS011;33994;50.998;5.864;2022-10-19T16:34:54;20.13;;;9.13;;
48203;SDS011;33994;50.998;5.864;2022-10-19T16:37:39;18.73;;;8.52;;
48203;SDS011;33994;50.998;5.864;2022-10-19T16:40:25;17.02;;;8.73;;
48203;SDS011;33994;50.998;5.864;2022-10-19T16:43:11;16.73;;;8.68;;
48203;SDS011;33994;50.998;5.864;2022-10-19T16:45:56;17.17;;;8.57;;
48203;SDS011;33994;50.998;5.864;2022-10-19T16:48:42;20.55;;;8.95;;
48203;SDS011;33994;50.998;5.864;2022-10-19T16:51:29;17.20;;;8.73;;
48203;SDS011;33994;50.998;5.864;2022-10-19T16:54:19;16.88;;;9.00;;
48203;SDS011;33994;50.998;5.864;2022-10-19T16:57:04;17.63;;;7.97;;
48203;SDS011;33994;50.998;5.864;2022-10-19T16:59:50;13.40;;;8.20;;
48203;SDS011;33994;50.998;5.864;2022-10-19T17:02:36;18.17;;;8.63;;
48203;SDS011;33994;50.998;5.864;2022-10-19T17:05:21;16.50;;;8.15;;
48203;SDS011;33994;50.998;5.864;2022-10-19T17:08:06;16.20;;;8.02;;
48203;SDS011;33994;50.998;5.864;2022-10-19T17:10:54;19.92;;;8.30;;
48203;SDS011;33994;50.998;5.864;2022-10-19T17:13:40;23.10;;;8.27;;
48203;SDS011;33994;50.998;5.864;2022-10-19T17:16:27;12.27;;;7.70;;
48203;SDS011;33994;50.998;5.864;2022-10-19T17:19:14;17.00;;;8.38;;
48203;SDS011;33994;50.998;5.864;2022-10-19T17:21:59;20.20;;;7.18;;
48203;SDS011;33994;50.998;5.864;2022-10-19T17:24:45;14.48;;;7.43;;
48203;SDS011;33994;50.998;5.864;2022-10-19T17:27:31;15.38;;;7.50;;
48203;SDS011;33994;50.998;5.864;2022-10-19T17:30:17;12.80;;;7.63;;
48203;SDS011;33994;50.998;5.864;2022-10-19T17:33:03;15.87;;;7.13;;
48203;SDS011;33994;50.998;5.864;2022-10-19T17:35:48;12.77;;;7.60;;
48203;SDS011;33994;50.998;5.864;2022-10-19T17:38:34;18.10;;;8.23;;
48203;SDS011;33994;50.998;5.864;2022-10-19T17:41:20;12.73;;;7.65;;
48203;SDS011;33994;50.998;5.864;2022-10-19T17:44:05;16.75;;;8.10;;
48203;SDS011;33994;50.998;5.864;2022-10-19T17:46:51;16.52;;;7.70;;
48203;SDS011;33994;50.998;5.864;2022-10-19T17:49:37;15.25;;;7.35;;
48203;SDS011;33994;50.998;5.864;2022-10-19T17:52:22;14.02;;;7.22;;
48203;SDS011;33994;50.998;5.864;2022-10-19T17:55:08;15.68;;;7.75;;
48203;SDS011;33994;50.998;5.864;2022-10-19T17:57:54;14.00;;;7.45;;
48203;SDS011;33994;50.998;5.864;2022-10-19T18:00:40;21.13;;;8.23;;
48203;SDS011;33994;50.998;5.864;2022-10-19T18:03:26;16.50;;;7.43;;
48203;SDS011;33994;50.998;5.864;2022-10-19T18:06:34;16.70;;;7.50;;
48203;SDS011;33994;50.998;5.864;2022-10-19T18:09:20;21.10;;;7.40;;
48203;SDS011;33994;50.998;5.864;2022-10-19T18:12:05;12.38;;;7.30;;
48203;SDS011;33994;50.998;5.864;2022-10-19T18:14:56;16.02;;;7.32;;
48203;SDS011;33994;50.998;5.864;2022-10-19T18:17:41;15.88;;;7.25;;
48203;SDS011;33994;50.998;5.864;2022-10-19T18:20:27;12.50;;;7.13;;
48203;SDS011;33994;50.998;5.864;2022-10-19T18:23:12;15.05;;;6.70;;
48203;SDS011;33994;50.998;5.864;2022-10-19T18:26:08;14.65;;;7.22;;
48203;SDS011;33994;50.998;5.864;2022-10-19T18:28:55;14.43;;;7.32;;
48203;SDS011;33994;50.998;5.864;2022-10-19T18:31:42;14.93;;;7.75;;
48203;SDS011;33994;50.998;5.864;2022-10-19T18:34:31;15.48;;;7.10;;
48203;SDS011;33994;50.998;5.864;2022-10-19T18:37:17;13.50;;;6.35;;
48203;SDS011;33994;50.998;5.864;2022-10-19T18:40:03;13.32;;;6.95;;
48203;SDS011;33994;50.998;5.864;2022-10-19T18:42:48;16.15;;;6.70;;
48203;SDS011;33994;50.998;5.864;2022-10-19T18:45:34;15.70;;;6.93;;
48203;SDS011;33994;50.998;5.864;2022-10-19T18:48:20;15.63;;;7.18;;
48203;SDS011;33994;50.998;5.864;2022-10-19T18:51:06;14.50;;;6.72;;
48203;SDS011;33994;50.998;5.864;2022-10-19T18:53:53;12.00;;;6.45;;